Time;durP1;ratioP1;P1;durP2;ratioP2;P2;SDS_P1;SDS_P2;PMS_P1;PMS_P2;Temp;Humidity;BMP_temperature;BMP_pressure;BME280_temperature;BME280_humidity;BME280_pressure;Samples;Min_cycle;Max_cycle;Signal;HPM_P1;HPM_P2
2022/10/02 00:01:32;;;;;;;6.90;5.10;;;;;;;;;;4969329;28;20193;-73
2022/10/02 00:03:58;;;;;;;5.80;4.83;;;;;;;;;;4965522;28;20198;-73
2022/10/02 00:06:27;;;;;;;8.73;5.17;;;;;;;;;;4951104;29;20225;-73
2022/10/02 00:08:56;;;;;;;5.60;4.90;;;;;;;;;;4960222;28;20205;-74
2022/10/02 00:11:24;;;;;;;5.43;4.87;;;;;;;;;;4972425;28;20224;-74
2022/10/02 00:13:55;;;;;;;7.27;4.70;;;;;;;;;;4954544;28;20201;-73
2022/10/02 00:16:23;;;;;;;6.77;4.33;;;;;;;;;;4970469;28;20197;-73
2022/10/02 00:18:50;;;;;;;7.37;4.40;;;;;;;;;;4960888;28;20228;-73
2022/10/02 00:21:49;;;;;;;7.30;4.10;;;;;;;;;;4965659;28;20545;-73
2022/10/02 00:24:26;;;;;;;6.37;4.23;;;;;;;;;;4969283;28;20540;-73
2022/10/02 00:26:57;;;;;;;5.00;3.93;;;;;;;;;;4971299;28;20216;-74
2022/10/02 00:29:24;;;;;;;5.93;4.20;;;;;;;;;;4952933;28;20658;-74
2022/10/02 00:32:01;;;;;;;5.30;4.27;;;;;;;;;;4969535;28;20200;-74
2022/10/02 00:34:37;;;;;;;6.80;3.90;;;;;;;;;;4971346;28;20726;-74
2022/10/02 00:37:07;;;;;;;5.93;3.63;;;;;;;;;;4982911;28;20271;-73
2022/10/02 00:39:52;;;;;;;4.53;3.47;;;;;;;;;;4986527;28;20243;-73
2022/10/02 00:42:22;;;;;;;4.37;3.40;;;;;;;;;;4969698;28;20235;-73
2022/10/02 00:45:08;;;;;;;5.97;3.97;;;;;;;;;;4965239;28;20202;-73
2022/10/02 00:47:41;;;;;;;6.60;3.80;;;;;;;;;;4964919;28;20241;-73
2022/10/02 00:50:14;;;;;;;6.73;4.47;;;;;;;;;;4967736;28;20573;-73
2022/10/02 00:52:59;;;;;;;5.87;3.87;;;;;;;;;;4969711;28;20207;-73
2022/10/02 00:55:35;;;;;;;5.80;3.83;;;;;;;;;;4969470;28;20197;-73
2022/10/02 00:58:03;;;;;;;4.73;3.60;;;;;;;;;;4953350;28;20201;-73
2022/10/02 01:00:30;;;;;;;5.43;3.40;;;;;;;;;;4967860;28;20212;-73
2022/10/02 01:03:16;;;;;;;5.77;3.43;;;;;;;;;;4969980;28;20189;-73
2022/10/02 01:05:43;;;;;;;4.60;3.40;;;;;;;;;;4967140;28;20185;-73
2022/10/02 01:08:10;;;;;;;9.20;4.33;;;;;;;;;;4968236;28;20200;-73
2022/10/02 01:10:38;;;;;;;6.33;3.80;;;;;;;;;;4967428;28;20225;-75
2022/10/02 01:13:05;;;;;;;8.03;3.60;;;;;;;;;;4969597;28;20201;-73
2022/10/02 01:15:33;;;;;;;7.47;3.47;;;;;;;;;;4967663;28;20197;-73
2022/10/02 01:18:01;;;;;;;3.90;3.37;;;;;;;;;;4968510;28;20704;-73
2022/10/02 01:20:33;;;;;;;5.37;3.33;;;;;;;;;;4968921;28;20213;-73
2022/10/02 01:23:03;;;;;;;5.67;3.47;;;;;;;;;;4966932;28;20204;-74
2022/10/02 01:25:29;;;;;;;5.00;3.10;;;;;;;;;;4970371;28;20193;-73
2022/10/02 01:27:56;;;;;;;3.77;3.20;;;;;;;;;;4968157;28;20545;-73
2022/10/02 01:30:23;;;;;;;6.67;3.23;;;;;;;;;;4951350;28;20218;-73
2022/10/02 01:32:56;;;;;;;5.67;3.20;;;;;;;;;;4966144;28;20197;-73
2022/10/02 01:35:30;;;;;;;4.60;3.03;;;;;;;;;;4968926;28;20209;-73
2022/10/02 01:37:57;;;;;;;6.57;3.30;;;;;;;;;;4967429;28;20676;-73
2022/10/02 01:40:28;;;;;;;4.67;3.00;;;;;;;;;;4967304;28;20212;-74
2022/10/02 01:42:55;;;;;;;6.23;2.73;;;;;;;;;;4966930;28;20589;-73
2022/10/02 01:45:24;;;;;;;5.93;3.00;;;;;;;;;;4967738;28;20200;-74
2022/10/02 01:47:54;;;;;;;4.57;3.13;;;;;;;;;;4968153;28;20205;-74
2022/10/02 01:50:27;;;;;;;5.33;3.03;;;;;;;;;;4967670;28;20221;-74
2022/10/02 01:53:22;;;;;;;4.50;2.57;;;;;;;;;;4968329;28;20266;-74
2022/10/02 01:55:51;;;;;;;4.80;2.67;;;;;;;;;;4951270;28;20206;-74
2022/10/02 01:58:21;;;;;;;5.83;2.93;;;;;;;;;;4967907;28;20200;-73
2022/10/02 02:01:06;;;;;;;5.57;2.50;;;;;;;;;;4962916;28;20669;-74
2022/10/02 02:03:33;;;;;;;3.67;2.40;;;;;;;;;;4964516;28;20194;-73
2022/10/02 02:06:26;;;;;;;3.63;2.87;;;;;;;;;;4967976;28;20248;-74
2022/10/02 02:08:53;;;;;;;5.33;2.43;;;;;;;;;;4953232;28;20661;-73
2022/10/02 02:11:25;;;;;;;5.00;2.33;;;;;;;;;;4969154;28;20223;-73
2022/10/02 02:13:53;;;;;;;2.43;2.00;;;;;;;;;;4970731;28;20233;-73
2022/10/02 02:16:38;;;;;;;3.77;2.00;;;;;;;;;;4971247;28;20200;-73
2022/10/02 02:19:09;;;;;;;4.53;2.13;;;;;;;;;;4970289;28;20197;-73
2022/10/02 02:21:59;;;;;;;3.77;2.20;;;;;;;;;;4971315;28;20204;-74
2022/10/02 02:24:40;;;;;;;4.97;2.00;;;;;;;;;;4964512;28;20209;-73
2022/10/02 02:27:07;;;;;;;5.57;2.20;;;;;;;;;;4969959;28;20201;-74
2022/10/02 02:29:34;;;;;;;5.87;2.07;;;;;;;;;;4971298;28;20197;-74
2022/10/02 02:32:02;;;;;;;4.60;2.13;;;;;;;;;;4971265;28;20217;-73
2022/10/02 02:34:30;;;;;;;3.80;2.33;;;;;;;;;;4970946;28;20224;-73
2022/10/02 02:36:59;;;;;;;4.13;2.27;;;;;;;;;;4964442;28;20194;-75
2022/10/02 02:39:36;;;;;;;6.27;2.30;;;;;;;;;;4970630;28;20195;-73
2022/10/02 02:42:03;;;;;;;6.07;2.30;;;;;;;;;;4970534;28;20197;-77
2022/10/02 02:44:31;;;;;;;5.10;2.50;;;;;;;;;;4971715;28;20201;-74
2022/10/02 02:47:03;;;;;;;3.73;2.03;;;;;;;;;;4970677;28;20193;-73
2022/10/02 02:49:49;;;;;;;5.70;2.67;;;;;;;;;;4981611;28;20189;-74
2022/10/02 02:52:17;;;;;;;5.30;2.30;;;;;;;;;;4971784;28;20208;-73
2022/10/02 02:54:45;;;;;;;4.93;1.97;;;;;;;;;;4970836;28;20193;-73
2022/10/02 02:57:12;;;;;;;6.63;2.10;;;;;;;;;;4970135;28;20202;-74
2022/10/02 02:59:39;;;;;;;7.00;2.27;;;;;;;;;;4973288;28;20202;-74
2022/10/02 03:02:05;;;;;;;6.50;2.33;;;;;;;;;;4970864;28;20900;-73
2022/10/02 03:04:32;;;;;;;4.83;1.90;;;;;;;;;;4971507;28;20706;-73
2022/10/02 03:07:00;;;;;;;4.63;1.70;;;;;;;;;;4968169;28;20205;-73
2022/10/02 03:09:27;;;;;;;4.90;1.87;;;;;;;;;;4968862;28;20217;-73
2022/10/02 03:12:01;;;;;;;4.70;1.57;;;;;;;;;;4970172;28;20224;-73
2022/10/02 03:14:40;;;;;;;4.07;1.53;;;;;;;;;;4950450;28;20210;-73
2022/10/02 03:17:18;;;;;;;1.70;1.30;;;;;;;;;;4964006;28;20259;-73
2022/10/02 03:19:48;;;;;;;4.83;1.60;;;;;;;;;;4969301;28;20186;-73
2022/10/02 03:22:35;;;;;;;4.90;1.30;;;;;;;;;;4971217;28;20197;-73
2022/10/02 03:25:04;;;;;;;3.53;1.17;;;;;;;;;;4971564;28;20200;-74
2022/10/02 03:27:35;;;;;;;4.23;1.30;;;;;;;;;;4953988;28;20304;-74
2022/10/02 03:30:09;;;;;;;5.50;1.33;;;;;;;;;;4972287;28;20751;-73
2022/10/02 03:32:36;;;;;;;1.60;1.00;;;;;;;;;;4952981;28;20205;-73
2022/10/02 03:35:04;;;;;;;3.07;1.03;;;;;;;;;;4970048;28;20197;-74
2022/10/02 03:37:30;;;;;;;4.33;1.30;;;;;;;;;;4965785;28;20205;-74
2022/10/02 03:39:59;;;;;;;2.17;0.80;;;;;;;;;;4968960;28;20297;-75
2022/10/02 03:42:26;;;;;;;2.60;0.93;;;;;;;;;;4967930;28;20283;-75
2022/10/02 03:44:53;;;;;;;1.97;0.80;;;;;;;;;;4971966;28;20300;-74
2022/10/02 03:47:20;;;;;;;3.43;0.97;;;;;;;;;;4969396;28;20209;-74
2022/10/02 03:49:46;;;;;;;3.67;0.87;;;;;;;;;;4970605;28;20201;-74
2022/10/02 03:52:17;;;;;;;3.80;0.90;;;;;;;;;;4970232;28;20224;-73
2022/10/02 03:54:44;;;;;;;5.37;0.90;;;;;;;;;;4970576;28;20620;-75
2022/10/02 03:57:18;;;;;;;5.30;0.77;;;;;;;;;;4970693;28;20549;-74
2022/10/02 04:00:06;;;;;;;3.20;0.97;;;;;;;;;;4968408;28;20296;-74
2022/10/02 04:02:41;;;;;;;2.07;0.90;;;;;;;;;;4967847;28;20207;-75
2022/10/02 04:05:07;;;;;;;3.10;0.73;;;;;;;;;;4969644;28;20198;-75
2022/10/02 04:07:36;;;;;;;3.43;0.50;;;;;;;;;;4968185;28;20194;-74
2022/10/02 04:10:12;;;;;;;1.93;0.67;;;;;;;;;;4968498;28;20193;-74
2022/10/02 04:12:40;;;;;;;5.33;1.17;;;;;;;;;;4956445;28;20200;-74
2022/10/02 04:15:26;;;;;;;3.43;0.70;;;;;;;;;;4968368;28;20190;-74
2022/10/02 04:17:54;;;;;;;3.10;0.80;;;;;;;;;;4970436;28;20879;-74
2022/10/02 04:20:25;;;;;;;3.20;1.00;;;;;;;;;;4967852;28;20197;-75
2022/10/02 04:22:52;;;;;;;1.60;0.63;;;;;;;;;;4969740;28;20197;-75
2022/10/02 04:25:20;;;;;;;2.93;0.70;;;;;;;;;;4971488;28;20195;-75
2022/10/02 04:27:57;;;;;;;3.17;0.90;;;;;;;;;;4951665;28;20204;-71
2022/10/02 04:30:24;;;;;;;2.90;0.77;;;;;;;;;;4969759;28;20197;-71
2022/10/02 04:32:51;;;;;;;1.90;0.60;;;;;;;;;;4964421;28;20219;-71
2022/10/02 04:35:24;;;;;;;3.83;0.70;;;;;;;;;;4973821;28;20321;-75
2022/10/02 04:37:51;;;;;;;3.70;0.87;;;;;;;;;;4968123;28;20868;-70
2022/10/02 04:40:49;;;;;;;2.83;0.50;;;;;;;;;;4968163;28;20687;-71
2022/10/02 04:43:15;;;;;;;2.43;1.00;;;;;;;;;;4964434;28;20229;-73
2022/10/02 04:45:58;;;;;;;1.07;0.60;;;;;;;;;;4967796;28;20192;-76
2022/10/02 04:48:45;;;;;;;2.40;0.70;;;;;;;;;;4967426;28;20193;-75
2022/10/02 04:51:34;;;;;;;1.43;0.60;;;;;;;;;;4964683;28;20218;-76
2022/10/02 04:54:19;;;;;;;2.10;0.70;;;;;;;;;;4964642;28;20201;-75
2022/10/02 04:56:51;;;;;;;2.83;0.80;;;;;;;;;;4958133;28;20201;-75
2022/10/02 04:59:37;;;;;;;3.33;0.77;;;;;;;;;;4964744;28;20200;-75
2022/10/02 05:02:10;;;;;;;1.13;0.47;;;;;;;;;;4964631;28;20549;-73
2022/10/02 05:04:55;;;;;;;2.63;0.80;;;;;;;;;;4967186;28;20193;-72
2022/10/02 05:07:22;;;;;;;3.30;0.93;;;;;;;;;;4960544;28;20601;-73
2022/10/02 05:10:00;;;;;;;3.43;0.80;;;;;;;;;;4963800;28;20597;-73
2022/10/02 05:12:33;;;;;;;3.77;0.70;;;;;;;;;;4966676;28;20228;-73
2022/10/02 05:15:03;;;;;;;2.03;0.80;;;;;;;;;;4962394;28;20255;-71
2022/10/02 05:17:48;;;;;;;5.13;0.90;;;;;;;;;;4963169;28;20202;-73
2022/10/02 05:20:42;;;;;;;2.63;0.97;;;;;;;;;;4956232;28;20627;-78
2022/10/02 05:23:16;;;;;;;2.57;0.80;;;;;;;;;;4963727;28;20217;-75
2022/10/02 05:25:53;;;;;;;3.80;0.80;;;;;;;;;;4964582;28;20228;-74
2022/10/02 05:28:32;;;;;;;2.60;0.70;;;;;;;;;;4952542;28;20231;-74
2022/10/02 05:31:03;;;;;;;4.17;1.40;;;;;;;;;;4963706;28;20209;-74
2022/10/02 05:33:32;;;;;;;4.90;1.13;;;;;;;;;;4954686;28;20673;-71
2022/10/02 05:36:10;;;;;;;2.07;1.00;;;;;;;;;;4964921;28;20310;-76
2022/10/02 05:39:09;;;;;;;2.33;1.20;;;;;;;;;;4965115;28;20217;-75
2022/10/02 05:41:54;;;;;;;4.57;1.10;;;;;;;;;;4962787;28;20280;-74
2022/10/02 05:44:22;;;;;;;3.10;0.97;;;;;;;;;;4964975;28;20821;-75
2022/10/02 05:46:52;;;;;;;1.57;0.70;;;;;;;;;;4969085;28;20201;-74
2022/10/02 05:49:24;;;;;;;3.00;0.90;;;;;;;;;;4970091;28;20269;-76
2022/10/02 05:51:52;;;;;;;3.77;1.00;;;;;;;;;;4976156;28;20225;-75
2022/10/02 05:54:36;;;;;;;4.03;1.47;;;;;;;;;;4975016;28;20306;-75
2022/10/02 05:57:18;;;;;;;3.67;1.30;;;;;;;;;;4974893;28;20216;-74
2022/10/02 05:59:55;;;;;;;5.17;1.17;;;;;;;;;;4980075;28;20193;-75
2022/10/02 06:02:37;;;;;;;4.67;1.60;;;;;;;;;;4990909;28;20303;-75
2022/10/02 06:05:25;;;;;;;7.13;1.80;;;;;;;;;;4989126;28;20368;-74
2022/10/02 06:07:54;;;;;;;6.97;1.43;;;;;;;;;;4974841;28;20199;-75
2022/10/02 06:10:33;;;;;;;6.77;2.43;;;;;;;;;;4972970;28;20280;-75
2022/10/02 06:13:03;;;;;;;4.07;1.60;;;;;;;;;;4972342;28;20599;-75
2022/10/02 06:15:51;;;;;;;4.87;1.50;;;;;;;;;;4960365;28;20197;-76
2022/10/02 06:18:19;;;;;;;8.20;1.77;;;;;;;;;;4974805;28;20600;-74
2022/10/02 06:20:50;;;;;;;10.23;1.80;;;;;;;;;;4961624;28;20189;-74
2022/10/02 06:23:20;;;;;;;5.30;1.57;;;;;;;;;;4974020;28;20224;-75
2022/10/02 06:25:58;;;;;;;6.80;1.40;;;;;;;;;;4970053;28;20267;-74
2022/10/02 06:28:33;;;;;;;8.20;2.00;;;;;;;;;;4975862;28;20552;-74
2022/10/02 06:31:20;;;;;;;5.80;1.73;;;;;;;;;;4974655;28;20215;-74
2022/10/02 06:33:47;;;;;;;6.10;2.00;;;;;;;;;;4945445;28;20296;-76
2022/10/02 06:36:26;;;;;;;5.93;2.30;;;;;;;;;;4974213;28;20260;-75
2022/10/02 06:39:12;;;;;;;8.43;2.00;;;;;;;;;;4977582;28;20556;-74
2022/10/02 06:41:49;;;;;;;4.13;2.00;;;;;;;;;;4974517;28;20308;-74
2022/10/02 06:44:54;;;;;;;6.90;1.80;;;;;;;;;;4974086;28;20233;-74
2022/10/02 06:47:34;;;;;;;5.80;1.70;;;;;;;;;;4941263;29;20202;-74
2022/10/02 06:50:04;;;;;;;5.87;2.03;;;;;;;;;;4920922;29;20290;-74
2022/10/02 06:52:50;;;;;;;5.90;1.73;;;;;;;;;;4958524;28;20389;-73
2022/10/02 06:55:17;;;;;;;5.00;1.43;;;;;;;;;;4974454;28;20190;-74
2022/10/02 06:57:47;;;;;;;6.80;1.53;;;;;;;;;;4964895;28;20861;-74
2022/10/02 07:00:17;;;;;;;5.13;1.57;;;;;;;;;;4970954;28;20221;-76
2022/10/02 07:03:15;;;;;;;6.00;1.30;;;;;;;;;;4970030;28;20558;-75
2022/10/02 07:06:01;;;;;;;8.33;1.63;;;;;;;;;;4954809;28;20196;-73
2022/10/02 07:08:43;;;;;;;6.87;1.50;;;;;;;;;;4972660;28;20284;-75
2022/10/02 07:11:17;;;;;;;6.80;1.83;;;;;;;;;;4970254;28;20201;-73
2022/10/02 07:14:02;;;;;;;8.97;1.77;;;;;;;;;;4966802;28;20591;-74
2022/10/02 07:16:37;;;;;;;9.30;1.80;;;;;;;;;;4966973;28;20553;-74
2022/10/02 07:19:11;;;;;;;9.23;1.67;;;;;;;;;;4977569;28;20230;-73
2022/10/02 07:21:47;;;;;;;7.60;1.73;;;;;;;;;;4957967;28;20190;-75
2022/10/02 07:24:20;;;;;;;6.40;1.57;;;;;;;;;;4965518;28;20198;-79
2022/10/02 07:26:47;;;;;;;8.07;2.07;;;;;;;;;;4963481;28;20936;-61
2022/10/02 07:29:14;;;;;;;5.87;1.80;;;;;;;;;;4964845;28;20221;-61
2022/10/02 07:31:56;;;;;;;5.83;1.60;;;;;;;;;;4964970;28;22002;-61
2022/10/02 07:34:23;;;;;;;6.50;1.83;;;;;;;;;;4960872;28;20204;-60
2022/10/02 07:36:56;;;;;;;4.93;1.70;;;;;;;;;;4961685;28;20209;-60
2022/10/02 07:39:26;;;;;;;9.53;1.60;;;;;;;;;;4961304;28;20206;-61
2022/10/02 07:41:57;;;;;;;4.43;1.60;;;;;;;;;;4963475;28;20576;-61
2022/10/02 07:44:34;;;;;;;8.57;1.73;;;;;;;;;;4963014;28;20269;-71
2022/10/02 07:47:14;;;;;;;6.17;1.70;;;;;;;;;;4962923;28;20287;-71
2022/10/02 07:49:44;;;;;;;6.37;1.50;;;;;;;;;;4963903;28;20189;-69
2022/10/02 07:52:21;;;;;;;3.97;1.23;;;;;;;;;;4958748;28;20300;-69
2022/10/02 07:55:00;;;;;;;6.90;2.57;;;;;;;;;;4962230;28;20973;-69
2022/10/02 07:57:30;;;;;;;6.30;1.73;;;;;;;;;;4952170;28;20658;-69
2022/10/02 08:00:05;;;;;;;7.23;1.37;;;;;;;;;;4963038;28;20190;-69
2022/10/02 08:02:47;;;;;;;4.20;1.27;;;;;;;;;;4962722;28;20220;-69
2022/10/02 08:05:16;;;;;;;4.90;1.47;;;;;;;;;;4961544;28;20205;-67
2022/10/02 08:07:44;;;;;;;6.90;1.87;;;;;;;;;;4961810;28;20760;-69
2022/10/02 08:10:11;;;;;;;6.60;1.43;;;;;;;;;;4963612;28;20292;-72
2022/10/02 08:12:52;;;;;;;3.93;1.37;;;;;;;;;;4962897;28;20857;-71
2022/10/02 08:15:21;;;;;;;3.93;1.30;;;;;;;;;;4963094;28;20264;-72
2022/10/02 08:17:54;;;;;;;3.00;1.17;;;;;;;;;;4951085;28;20237;-71
2022/10/02 08:20:43;;;;;;;4.43;1.10;;;;;;;;;;4973821;28;20530;-67
2022/10/02 08:23:20;;;;;;;4.37;1.30;;;;;;;;;;4968329;28;20190;-69
2022/10/02 08:25:49;;;;;;;4.47;1.27;;;;;;;;;;4965798;28;20192;-71
2022/10/02 08:28:22;;;;;;;4.10;1.40;;;;;;;;;;4963590;28;20248;-70
2022/10/02 08:30:50;;;;;;;3.80;1.70;;;;;;;;;;4964428;28;20194;-69
2022/10/02 08:33:17;;;;;;;5.50;1.57;;;;;;;;;;4962154;28;20264;-73
2022/10/02 08:36:04;;;;;;;5.57;1.70;;;;;;;;;;4959555;28;20248;-73
2022/10/02 08:38:34;;;;;;;5.07;1.50;;;;;;;;;;4962832;28;20195;-73
2022/10/02 08:41:20;;;;;;;4.70;1.10;;;;;;;;;;4961502;28;20712;-72
2022/10/02 08:44:06;;;;;;;7.40;1.60;;;;;;;;;;4962028;28;20668;-72
2022/10/02 08:46:55;;;;;;;4.83;1.50;;;;;;;;;;4962548;28;20324;-74
2022/10/02 08:49:22;;;;;;;6.13;1.40;;;;;;;;;;4960882;28;20189;-70
2022/10/02 08:51:49;;;;;;;6.27;1.33;;;;;;;;;;4954222;28;20299;-72
2022/10/02 08:54:28;;;;;;;5.40;1.70;;;;;;;;;;4963787;28;20219;-72
2022/10/02 08:56:57;;;;;;;5.77;1.47;;;;;;;;;;4948619;28;20233;-72
2022/10/02 09:00:00;;;;;;;4.10;1.20;;;;;;;;;;4963508;28;20173;-69
2022/10/02 09:02:46;;;;;;;5.20;1.30;;;;;;;;;;4964656;28;20669;-71
2022/10/02 09:05:34;;;;;;;3.03;1.20;;;;;;;;;;4966796;28;20197;-72
2022/10/02 09:08:19;;;;;;;4.43;1.20;;;;;;;;;;4967779;28;20221;-70
2022/10/02 09:10:46;;;;;;;5.40;1.23;;;;;;;;;;4953120;28;21003;-71
2022/10/02 09:13:31;;;;;;;3.73;1.07;;;;;;;;;;4964132;28;20601;-70
2022/10/02 09:16:11;;;;;;;10.40;2.30;;;;;;;;;;4967898;28;20585;-71
2022/10/02 09:18:41;;;;;;;2.50;0.90;;;;;;;;;;4952787;28;20243;-71
2022/10/02 09:21:11;;;;;;;2.60;0.90;;;;;;;;;;4964380;28;20201;-71
2022/10/02 09:23:57;;;;;;;3.90;1.27;;;;;;;;;;4968667;28;20687;-71
2022/10/02 09:26:30;;;;;;;3.93;1.07;;;;;;;;;;4957837;28;20205;-71
2022/10/02 09:29:00;;;;;;;3.73;1.10;;;;;;;;;;4970483;28;20294;-71
2022/10/02 09:31:28;;;;;;;4.47;1.00;;;;;;;;;;4967919;28;20264;-72
2022/10/02 09:34:06;;;;;;;2.33;0.90;;;;;;;;;;4970446;28;20189;-71
2022/10/02 09:36:33;;;;;;;3.23;0.80;;;;;;;;;;4970055;28;20193;-70
2022/10/02 09:39:27;;;;;;;2.33;0.97;;;;;;;;;;4962601;28;20200;-69
2022/10/02 09:42:19;;;;;;;4.07;1.00;;;;;;;;;;4949971;28;20205;-71
2022/10/02 09:44:58;;;;;;;2.57;0.87;;;;;;;;;;4926294;29;20301;-72
2022/10/02 09:47:46;;;;;;;3.93;1.00;;;;;;;;;;4930074;29;20222;-71
2022/10/02 09:50:32;;;;;;;4.20;0.80;;;;;;;;;;4930769;29;20192;-71
2022/10/02 09:53:07;;;;;;;2.60;0.97;;;;;;;;;;4927702;29;20305;-70
2022/10/02 09:55:53;;;;;;;2.10;0.80;;;;;;;;;;4930643;29;20187;-72
2022/10/02 09:58:29;;;;;;;1.87;0.70;;;;;;;;;;4933886;28;20320;-73
2022/10/02 10:01:02;;;;;;;2.40;0.70;;;;;;;;;;4953103;28;20276;-68
2022/10/02 10:03:54;;;;;;;1.43;0.60;;;;;;;;;;4952903;28;20242;-69
2022/10/02 10:06:24;;;;;;;1.23;0.40;;;;;;;;;;4947319;29;20297;-69
2022/10/02 10:08:54;;;;;;;2.07;0.60;;;;;;;;;;4952313;28;20198;-70
2022/10/02 10:11:28;;;;;;;2.50;0.80;;;;;;;;;;4952841;28;20593;-70
2022/10/02 10:14:44;;;;;;;1.03;0.60;;;;;;;;;;4962032;28;20201;-72
2022/10/02 10:17:10;;;;;;;1.40;0.70;;;;;;;;;;4938781;29;20191;-70
2022/10/02 10:19:37;;;;;;;2.60;1.03;;;;;;;;;;4933908;28;20237;-69
2022/10/02 10:22:23;;;;;;;2.87;0.70;;;;;;;;;;4946908;28;20202;-69
2022/10/02 10:25:27;;;;;;;1.47;0.77;;;;;;;;;;4938890;29;20186;-68
2022/10/02 10:27:54;;;;;;;1.63;0.70;;;;;;;;;;4955057;28;20229;-68
2022/10/02 10:30:30;;;;;;;2.33;0.70;;;;;;;;;;4950179;28;20197;-69
2022/10/02 10:33:17;;;;;;;0.77;0.60;;;;;;;;;;4953723;28;20224;-69
2022/10/02 10:35:48;;;;;;;1.00;0.60;;;;;;;;;;4953683;28;20198;-69
2022/10/02 10:38:35;;;;;;;1.50;0.60;;;;;;;;;;4952402;29;20606;-71
2022/10/02 10:41:31;;;;;;;1.17;0.50;;;;;;;;;;4953426;29;20669;-69
2022/10/02 10:44:07;;;;;;;1.73;0.70;;;;;;;;;;4982517;28;20303;-69
2022/10/02 10:46:46;;;;;;;1.63;0.80;;;;;;;;;;4990750;28;20224;-69
2022/10/02 10:49:22;;;;;;;1.50;0.80;;;;;;;;;;4988603;28;20235;-70
2022/10/02 10:51:49;;;;;;;3.13;0.90;;;;;;;;;;4990570;28;20709;-69
2022/10/02 10:54:28;;;;;;;2.80;0.80;;;;;;;;;;4984812;28;20189;-70
2022/10/02 10:57:03;;;;;;;1.40;0.87;;;;;;;;;;4969733;28;20287;-69
2022/10/02 10:59:45;;;;;;;2.10;0.80;;;;;;;;;;4986735;28;20232;-69
2022/10/02 11:02:21;;;;;;;1.30;0.90;;;;;;;;;;4966641;28;20209;-70
2022/10/02 11:05:07;;;;;;;1.53;1.00;;;;;;;;;;4983291;28;20203;-69
2022/10/02 11:07:34;;;;;;;2.40;0.90;;;;;;;;;;4987419;28;20283;-69
2022/10/02 11:10:08;;;;;;;1.20;0.63;;;;;;;;;;4988218;28;20188;-69
2022/10/02 11:12:54;;;;;;;2.50;0.87;;;;;;;;;;4969825;28;20703;-70
2022/10/02 11:15:36;;;;;;;4.13;1.20;;;;;;;;;;4979850;28;20188;-71
2022/10/02 11:18:21;;;;;;;2.47;0.90;;;;;;;;;;4990195;28;20192;-71
2022/10/02 11:21:09;;;;;;;3.47;1.07;;;;;;;;;;4976100;28;20181;-70
2022/10/02 11:23:45;;;;;;;3.17;1.10;;;;;;;;;;4982932;28;20644;-71
2022/10/02 11:26:28;;;;;;;1.83;1.43;;;;;;;;;;4991755;28;20199;-73
2022/10/02 11:28:59;;;;;;;2.00;1.23;;;;;;;;;;4970421;28;20200;-71
2022/10/02 11:31:34;;;;;;;2.87;1.10;;;;;;;;;;4978211;28;20204;-72
2022/10/02 11:34:08;;;;;;;2.53;1.30;;;;;;;;;;4972879;28;20223;-72
2022/10/02 11:36:51;;;;;;;2.20;1.30;;;;;;;;;;4989222;28;20200;-71
2022/10/02 11:39:37;;;;;;;2.60;1.30;;;;;;;;;;4973908;28;20730;-71
2022/10/02 11:42:16;;;;;;;2.57;1.37;;;;;;;;;;4989557;28;20203;-71
2022/10/02 11:44:43;;;;;;;3.13;1.37;;;;;;;;;;4975428;28;20204;-71
2022/10/02 11:47:14;;;;;;;3.20;2.10;;;;;;;;;;4988945;28;20223;-71
2022/10/02 11:49:44;;;;;;;3.30;1.30;;;;;;;;;;4981772;28;20234;-71
2022/10/02 11:52:40;;;;;;;3.13;1.90;;;;;;;;;;4973391;28;20275;-71
2022/10/02 11:55:13;;;;;;;4.07;1.93;;;;;;;;;;4982552;28;20200;-71
2022/10/02 11:57:46;;;;;;;3.57;1.47;;;;;;;;;;4978680;28;20244;-70
2022/10/02 12:00:13;;;;;;;3.37;1.93;;;;;;;;;;4990774;28;20192;-71
2022/10/02 12:02:42;;;;;;;3.43;1.70;;;;;;;;;;4989294;28;20201;-69
2022/10/02 12:05:16;;;;;;;3.10;1.80;;;;;;;;;;4978964;28;20186;-69
2022/10/02 12:08:02;;;;;;;2.87;2.10;;;;;;;;;;4961778;28;20888;-72
2022/10/02 12:10:32;;;;;;;3.47;1.50;;;;;;;;;;4988920;28;20275;-69
2022/10/02 12:13:14;;;;;;;3.80;1.63;;;;;;;;;;4990187;28;20216;-72
2022/10/02 12:16:08;;;;;;;2.70;1.50;;;;;;;;;;4988965;28;20199;-73
2022/10/02 12:18:52;;;;;;;3.97;1.77;;;;;;;;;;4975305;28;20181;-68
2022/10/02 12:27:29;;;;;;;2.87;1.80;;;;;;;;;;4982230;28;20684;-71
2022/10/02 12:30:02;;;;;;;4.10;1.70;;;;;;;;;;4983598;28;20235;-70
2022/10/02 12:32:35;;;;;;;5.43;1.73;;;;;;;;;;4963734;28;20299;-70
2022/10/02 12:35:16;;;;;;;2.07;1.27;;;;;;;;;;4983792;28;20208;-71
2022/10/02 12:37:43;;;;;;;3.37;1.50;;;;;;;;;;4965037;28;20744;-69
2022/10/02 12:40:13;;;;;;;3.20;1.33;;;;;;;;;;4981965;28;20199;-70
2022/10/02 12:42:58;;;;;;;3.57;1.60;;;;;;;;;;4981739;28;20236;-70
2022/10/02 12:45:46;;;;;;;3.33;1.50;;;;;;;;;;4965214;28;20307;-71
2022/10/02 12:48:26;;;;;;;2.33;1.13;;;;;;;;;;4964734;28;20208;-71
2022/10/02 12:51:01;;;;;;;4.50;1.60;;;;;;;;;;4965784;28;20311;-71
2022/10/02 12:53:49;;;;;;;3.73;1.47;;;;;;;;;;4982236;28;20649;-72
2022/10/02 12:56:22;;;;;;;5.67;1.67;;;;;;;;;;4980054;28;20200;-70
2022/10/02 12:59:02;;;;;;;4.37;1.43;;;;;;;;;;4967244;28;20224;-70
2022/10/02 13:01:31;;;;;;;6.00;2.10;;;;;;;;;;4983202;28;20199;-70
2022/10/02 13:04:04;;;;;;;9.90;5.03;;;;;;;;;;4983026;28;20192;-70
2022/10/02 13:06:36;;;;;;;5.40;1.93;;;;;;;;;;4983079;28;20273;-70
2022/10/02 13:09:10;;;;;;;5.47;2.07;;;;;;;;;;4963475;28;20727;-70
2022/10/02 13:11:43;;;;;;;6.77;1.80;;;;;;;;;;4982354;28;20199;-70
2022/10/02 13:14:21;;;;;;;5.37;1.83;;;;;;;;;;4965818;28;20221;-70
2022/10/02 13:16:57;;;;;;;5.53;2.03;;;;;;;;;;4981084;28;20615;-70
2022/10/02 13:19:25;;;;;;;3.80;1.40;;;;;;;;;;4982150;28;20223;-71
2022/10/02 13:22:00;;;;;;;5.20;1.77;;;;;;;;;;4978896;28;20201;-71
2022/10/02 13:24:28;;;;;;;4.57;1.47;;;;;;;;;;4962632;28;20280;-73
2022/10/02 13:26:58;;;;;;;12.27;3.10;;;;;;;;;;4964141;28;20205;-68
2022/10/02 13:29:28;;;;;;;18.70;8.33;;;;;;;;;;4978024;28;20324;-70
2022/10/02 13:32:21;;;;;;;3.60;1.63;;;;;;;;;;4981016;28;20568;-72
2022/10/02 13:34:52;;;;;;;5.07;1.70;;;;;;;;;;4977395;28;20228;-72
2022/10/02 13:37:33;;;;;;;6.43;1.70;;;;;;;;;;4974576;28;20272;-70
2022/10/02 13:40:03;;;;;;;5.50;1.80;;;;;;;;;;4962807;28;20193;-71
2022/10/02 13:42:53;;;;;;;3.60;1.60;;;;;;;;;;4962841;28;20192;-70
2022/10/02 13:45:21;;;;;;;5.60;1.83;;;;;;;;;;4948702;28;20259;-71
2022/10/02 13:48:08;;;;;;;6.30;1.70;;;;;;;;;;4981498;28;20221;-69
2022/10/02 13:50:38;;;;;;;2.90;1.50;;;;;;;;;;4981931;28;20208;-70
2022/10/02 13:53:24;;;;;;;2.57;1.30;;;;;;;;;;4981390;28;20216;-71
2022/10/02 13:55:58;;;;;;;3.70;1.37;;;;;;;;;;4979942;28;20280;-70
2022/10/02 13:58:25;;;;;;;3.87;1.30;;;;;;;;;;4950010;28;20239;-70
2022/10/02 14:00:53;;;;;;;3.10;1.27;;;;;;;;;;4980929;28;20201;-70
2022/10/02 14:03:27;;;;;;;2.60;1.00;;;;;;;;;;4982793;28;20196;-70
2022/10/02 14:05:54;;;;;;;1.70;1.10;;;;;;;;;;4964261;28;20559;-70
2022/10/02 14:08:46;;;;;;;1.67;1.10;;;;;;;;;;4980901;28;20185;-71
2022/10/02 14:11:28;;;;;;;3.87;1.30;;;;;;;;;;4983825;28;20275;-70
2022/10/02 14:14:14;;;;;;;2.57;1.30;;;;;;;;;;4966866;28;20225;-71
2022/10/02 14:16:52;;;;;;;3.90;1.43;;;;;;;;;;4984777;28;20208;-70
2022/10/02 14:19:22;;;;;;;3.73;1.40;;;;;;;;;;4983540;28;20260;-70
2022/10/02 14:21:50;;;;;;;5.60;1.43;;;;;;;;;;4984626;28;20815;-70
2022/10/02 14:24:18;;;;;;;3.00;1.30;;;;;;;;;;4983017;28;20223;-70
2022/10/02 14:26:54;;;;;;;3.83;1.50;;;;;;;;;;4985909;28;20300;-70
2022/10/02 14:29:27;;;;;;;4.60;1.40;;;;;;;;;;4967070;28;20204;-70
2022/10/02 14:31:54;;;;;;;4.53;1.57;;;;;;;;;;4975800;28;20236;-70
2022/10/02 14:34:35;;;;;;;4.53;1.70;;;;;;;;;;4982210;28;20998;-69
2022/10/02 14:37:21;;;;;;;4.13;1.73;;;;;;;;;;4983677;28;20208;-69
2022/10/02 14:39:48;;;;;;;7.57;1.93;;;;;;;;;;4983079;28;20193;-70
2022/10/02 14:42:37;;;;;;;4.50;1.90;;;;;;;;;;4982940;28;20291;-70
2022/10/02 14:45:09;;;;;;;2.53;1.30;;;;;;;;;;4980193;28;20235;-69
2022/10/02 14:47:42;;;;;;;6.50;1.70;;;;;;;;;;4965654;28;20207;-69
2022/10/02 14:50:10;;;;;;;7.33;2.37;;;;;;;;;;4965825;28;20201;-69
2022/10/02 14:52:38;;;;;;;6.13;2.37;;;;;;;;;;4984109;28;20764;-70
2022/10/02 14:55:12;;;;;;;5.37;2.00;;;;;;;;;;4983135;28;20956;-69
2022/10/02 14:57:39;;;;;;;3.93;1.70;;;;;;;;;;4970307;28;20248;-70
2022/10/02 15:00:16;;;;;;;5.23;1.90;;;;;;;;;;4984081;28;20195;-70
2022/10/02 15:02:47;;;;;;;2.57;1.37;;;;;;;;;;4983838;28;20399;-70
2022/10/02 15:05:17;;;;;;;3.37;1.40;;;;;;;;;;4966395;28;20201;-71
2022/10/02 15:07:46;;;;;;;2.73;1.50;;;;;;;;;;4981674;28;20848;-71
2022/10/02 15:10:15;;;;;;;3.20;1.57;;;;;;;;;;4984182;28;20205;-72
2022/10/02 15:12:49;;;;;;;3.10;1.70;;;;;;;;;;4983168;28;20299;-70
2022/10/02 15:15:18;;;;;;;4.60;1.77;;;;;;;;;;4983284;28;20716;-71
2022/10/02 15:18:04;;;;;;;3.73;1.77;;;;;;;;;;4966725;28;20212;-69
2022/10/02 15:20:39;;;;;;;3.13;1.40;;;;;;;;;;4983717;28;20211;-73
2022/10/02 15:23:11;;;;;;;3.90;1.70;;;;;;;;;;4984170;28;20921;-71
2022/10/02 15:25:45;;;;;;;4.03;1.80;;;;;;;;;;4967516;28;20279;-70
2022/10/02 15:28:15;;;;;;;4.40;1.80;;;;;;;;;;4964040;28;20201;-71
2022/10/02 15:31:10;;;;;;;3.37;1.73;;;;;;;;;;4983106;28;20533;-72
2022/10/02 15:33:41;;;;;;;4.83;1.90;;;;;;;;;;4966009;28;20228;-70
2022/10/02 15:36:11;;;;;;;3.77;1.50;;;;;;;;;;4965046;28;20197;-71
2022/10/02 15:38:56;;;;;;;4.37;1.70;;;;;;;;;;4979574;28;20600;-72